CSCL Long Beach — VRCZ7 — position and weather

sailwx.info

Track history (hours):
 
Tides and Currents Weather Stations Pressure Air Temp Water Temp Dewpoint Dewpoint Depression Visibility Wind Speed Wind Dir Waves Ship Positions

CSCL Long Beach

Last reported at 2014-Aug-20 14:06 UTC. Time now 2014-Aug-20 22:25 UTC.
Position N 24°52' E 119°45'.

Length 336.7 m; beam 45.6 m; draft 15 m.

Type: Cargo ship. MMSI: 477883900.

Date/timePositionNaut miles runAvg speedWind from/ knotsBaromVisibWave heightAir tempDewpointWater temp
2014-Aug-20 14:06N 24°52' E 119°45'3713.0
2014-Aug-20 11:16N 24°30' E 119°12'4213.9
2014-Aug-20 08:15N 24°03' E 118°37'1013.8
2014-Aug-20 07:33N 23°56' E 118°30'1313.2
2014-Aug-20 06:34N 23°48' E 118°19'1313.2
2014-Aug-20 05:33N 23°39' E 118°08'1312.7
2014-Aug-20 04:33N 23°31' E 117°57'1312.4
2014-Aug-20 03:29N 23°21' E 117°47'1211.6
2014-Aug-20 02:27N 23°16' E 117°35'3612.6
2014-Aug-19 23:33N 22°52' E 117°06'1513.4
2014-Aug-19 22:28N 22°41' E 116°55'17612.3
2014-Aug-19 08:11N 21°55' E 113°52'2012.4
2014-Aug-19 06:33N 22°15' E 113°48'8 7.7
2014-Aug-19 05:33N 22°22' E 113°47'1312.8
2014-Aug-19 04:32N 22°35' E 113°43'4 0.3
2014-Aug-18 15:33N 22°38' E 113°41'6 5.6
2014-Aug-18 14:34N 22°33' E 113°43'1413.8
2014-Aug-18 13:33N 22°20' E 113°48'1110.7
2014-Aug-18 12:33N 22°10' E 113°51'1010.3
2014-Aug-18 11:33N 21°60' E 113°53'6 0.9
2014-Aug-18 05:30N 21°56' E 113°58'8 8.7
2014-Aug-18 04:32N 21°49' E 113°54'  
2014-Aug-13 22:33N 01°16' E 104°13'1716.5
2014-Aug-13 21:33N 01°13' E 103°56'1414.4
2014-Aug-13 20:33N 01°06' E 103°44'  
Track history (hours):
 
Tides and Currents Weather Stations Pressure Air Temp Water Temp Dewpoint Dewpoint Depression Visibility Wind Speed Wind Dir Waves Ship Positions

CSCL Long Beach

Last reported at 2014-Aug-20 14:06 UTC. Time now 2014-Aug-20 22:25 UTC.
Position N 24°52' E 119°45'.

Length 336.7 m; beam 45.6 m; draft 15 m.

Type: Cargo ship. MMSI: 477883900.

Date/timePositionNaut miles runAvg speedWind from/ knotsBaromVisibWave heightAir tempDewpointWater temp
2014-Aug-20 14:06N 24°52' E 119°45'3713.0
2014-Aug-20 11:16N 24°30' E 119°12'4213.9
2014-Aug-20 08:15N 24°03' E 118°37'1013.8
2014-Aug-20 07:33N 23°56' E 118°30'1313.2
2014-Aug-20 06:34N 23°48' E 118°19'1313.2
2014-Aug-20 05:33N 23°39' E 118°08'1312.7
2014-Aug-20 04:33N 23°31' E 117°57'1312.4
2014-Aug-20 03:29N 23°21' E 117°47'1211.6
2014-Aug-20 02:27N 23°16' E 117°35'3612.6
2014-Aug-19 23:33N 22°52' E 117°06'1513.4
2014-Aug-19 22:28N 22°41' E 116°55'17612.3
2014-Aug-19 08:11N 21°55' E 113°52'2012.4
2014-Aug-19 06:33N 22°15' E 113°48'8 7.7
2014-Aug-19 05:33N 22°22' E 113°47'1312.8
2014-Aug-19 04:32N 22°35' E 113°43'4 0.3
2014-Aug-18 15:33N 22°38' E 113°41'6 5.6
2014-Aug-18 14:34N 22°33' E 113°43'1413.8
2014-Aug-18 13:33N 22°20' E 113°48'1110.7
2014-Aug-18 12:33N 22°10' E 113°51'1010.3
2014-Aug-18 11:33N 21°60' E 113°53'6 0.9
2014-Aug-18 05:30N 21°56' E 113°58'8 8.7
2014-Aug-18 04:32N 21°49' E 113°54'  
2014-Aug-13 22:33N 01°16' E 104°13'1716.5
2014-Aug-13 21:33N 01°13' E 103°56'1414.4
2014-Aug-13 20:33N 01°06' E 103°44'  

Dump ship's entire track history